createdAt,value
2018-12-27T00:00:51.393Z,3.73
2018-12-27T00:03:21.807Z,3.78
2018-12-27T00:05:52.121Z,3.83
2018-12-27T00:08:22.896Z,3.84
2018-12-27T00:10:53.190Z,3.89
2018-12-27T00:13:42.300Z,3.76
2018-12-27T00:16:12.664Z,3.76
2018-12-27T00:18:42.982Z,3.71
2018-12-27T00:21:13.396Z,3.77
2018-12-27T00:26:54.087Z,3.83
2018-12-27T00:32:42.988Z,3.81
2018-12-27T00:35:32.249Z,3.74
2018-12-27T00:38:02.712Z,3.69
2018-12-27T00:40:33.074Z,3.67
2018-12-27T00:46:21.174Z,3.65
2018-12-27T00:48:52.142Z,3.60
2018-12-27T00:51:33.726Z,3.55
2018-12-27T00:54:04.063Z,3.58
2018-12-27T00:56:34.968Z,3.55
2018-12-27T00:59:05.444Z,3.57
2018-12-27T01:01:35.768Z,3.66
2018-12-27T01:04:06.447Z,3.66
2018-12-27T01:06:37.013Z,3.66
2018-12-27T01:09:07.894Z,3.72
2018-12-27T01:11:38.311Z,3.73
2018-12-27T01:14:09.375Z,3.74
2018-12-27T01:16:39.592Z,3.73
2018-12-27T01:19:28.866Z,3.69
2018-12-27T01:21:59.208Z,3.66
2018-12-27T01:24:29.599Z,3.69
2018-12-27T01:30:13.426Z,3.74
2018-12-27T01:32:43.867Z,3.69
2018-12-27T01:35:14.291Z,3.66
2018-12-27T01:38:03.606Z,3.71
2018-12-27T01:40:33.975Z,3.60
2018-12-27T01:43:04.792Z,3.66
2018-12-27T01:45:53.991Z,3.71
2018-12-27T01:48:24.368Z,3.70
2018-12-27T01:50:54.833Z,3.64
2018-12-27T01:53:25.498Z,3.67
2018-12-27T01:55:55.944Z,3.63
2018-12-27T01:58:26.246Z,3.67
2018-12-27T02:07:15.299Z,3.54
2018-12-27T02:10:04.403Z,3.39
2018-12-27T02:12:34.891Z,3.44
2018-12-27T02:15:05.328Z,3.50
2018-12-27T02:17:35.784Z,3.57
2018-12-27T02:20:25.029Z,3.46
2018-12-27T02:22:55.358Z,3.38
2018-12-27T02:25:25.663Z,3.41
2018-12-27T02:27:56.158Z,3.30
2018-12-27T02:30:26.628Z,3.41
2018-12-27T02:32:57.056Z,3.46
2018-12-27T02:35:27.577Z,3.52
2018-12-27T02:37:57.907Z,3.57
2018-12-27T02:40:28.161Z,3.61
2018-12-27T02:42:58.565Z,3.70
2018-12-27T02:45:29.003Z,3.73
2018-12-27T02:47:59.342Z,3.86
2018-12-27T02:50:48.603Z,3.93
2018-12-27T02:53:19.131Z,3.94
2018-12-27T02:55:49.453Z,3.99
2018-12-27T03:01:12.205Z,3.97
2018-12-27T03:03:43.999Z,4.06
2018-12-27T03:06:14.768Z,4.11
2018-12-27T03:08:45.342Z,4.06
2018-12-27T03:11:15.850Z,4.09
2018-12-27T03:13:46.259Z,4.05
2018-12-27T03:16:16.744Z,3.98
2018-12-27T03:18:47.606Z,3.95
2018-12-27T03:21:18.361Z,3.98
2018-12-27T03:23:49.349Z,3.94
2018-12-27T03:26:19.689Z,4.01
2018-12-27T03:28:50.508Z,4.01
2018-12-27T03:31:20.877Z,4.06
2018-12-27T03:33:52.897Z,4.02
2018-12-27T03:36:23.418Z,4.03
2018-12-27T03:38:53.887Z,4.00
2018-12-27T03:41:24.299Z,3.99
2018-12-27T03:44:13.358Z,4.00
2018-12-27T03:46:43.784Z,4.05
2018-12-27T03:49:14.095Z,4.05
2018-12-27T03:51:44.541Z,4.00
2018-12-27T03:54:14.934Z,3.97
2018-12-27T03:56:45.334Z,3.97
2018-12-27T03:59:15.980Z,3.96
2018-12-27T04:02:05.497Z,3.94
2018-12-27T04:04:35.921Z,3.90
2018-12-27T04:07:06.280Z,3.86
2018-12-27T04:09:36.734Z,3.85
2018-12-27T04:21:04.568Z,3.82
2018-12-27T04:26:45.051Z,3.71
2018-12-27T04:29:15.477Z,3.70
2018-12-27T04:32:24.553Z,3.56
2018-12-27T04:38:04.867Z,3.47
2018-12-27T04:40:35.230Z,3.62
2018-12-27T04:46:29.263Z,3.75
2018-12-27T04:52:14.400Z,3.85
2018-12-27T05:03:36.666Z,3.95
2018-12-27T05:08:52.060Z,3.88
2018-12-27T05:11:22.349Z,3.86
2018-12-27T05:13:52.626Z,3.87
2018-12-27T05:16:41.729Z,3.83
2018-12-27T05:19:30.935Z,3.82
2018-12-27T05:28:04.840Z,3.78
2018-12-27T05:30:35.156Z,3.75
2018-12-27T05:33:05.413Z,3.72
2018-12-27T05:38:29.617Z,3.66
2018-12-27T05:41:20.233Z,3.66
2018-12-27T05:44:09.295Z,3.58
2018-12-27T05:46:59.698Z,3.54
2018-12-27T05:49:48.768Z,3.51
2018-12-27T05:52:19.248Z,3.46
2018-12-27T05:57:33.651Z,3.44
2018-12-27T06:00:04.016Z,3.48
2018-12-27T06:05:30.302Z,3.52
2018-12-27T06:08:00.593Z,3.59
2018-12-27T06:10:30.910Z,3.66
2018-12-27T06:13:01.218Z,3.77
2018-12-27T06:15:50.507Z,3.86
2018-12-27T06:18:20.906Z,3.97
2018-12-27T06:20:51.218Z,3.98
2018-12-27T06:26:17.834Z,4.12
2018-12-27T06:28:48.142Z,4.13
2018-12-27T06:31:18.371Z,4.13
2018-12-27T06:33:48.698Z,4.16
2018-12-27T06:36:19.058Z,4.13
2018-12-27T06:38:49.488Z,4.12
2018-12-27T06:41:19.841Z,4.16
2018-12-27T06:43:50.215Z,4.23
2018-12-27T06:46:20.585Z,4.25
2018-12-27T06:48:50.999Z,4.33
2018-12-27T06:51:21.270Z,4.39
2018-12-27T06:53:51.532Z,4.49
2018-12-27T06:56:33.094Z,4.53
2018-12-27T06:59:14.561Z,4.49
2018-12-27T07:01:45.042Z,4.53
2018-12-27T07:04:15.346Z,4.54
2018-12-27T07:06:46.064Z,4.59
2018-12-27T07:09:16.753Z,4.63
2018-12-27T07:11:47.091Z,4.74
2018-12-27T07:14:17.392Z,4.76
2018-12-27T07:16:47.710Z,4.80
2018-12-27T07:19:36.838Z,4.75
2018-12-27T07:22:07.184Z,4.75
2018-12-27T07:24:37.483Z,4.77
2018-12-27T07:27:10.503Z,4.85
2018-12-27T07:29:59.586Z,4.84
2018-12-27T07:32:29.880Z,4.93
2018-12-27T07:35:00.160Z,4.97
2018-12-27T07:37:30.545Z,5.05
2018-12-27T07:51:43.000Z,5.65
2018-12-27T07:57:27.877Z,5.84
2018-12-27T08:03:09.295Z,5.91
2018-12-27T08:05:58.459Z,6.02
2018-12-27T08:08:28.898Z,6.11
2018-12-27T08:10:59.214Z,6.11
2018-12-27T08:13:29.476Z,6.17
2018-12-27T08:15:59.789Z,6.19
2018-12-27T08:18:30.122Z,6.09
2018-12-27T08:21:00.518Z,6.09
2018-12-27T08:23:49.787Z,6.02
2018-12-27T08:26:20.132Z,6.06
2018-12-27T08:29:09.195Z,6.14
2018-12-27T08:31:59.708Z,6.11
2018-12-27T08:34:30.185Z,6.16
2018-12-27T08:37:00.471Z,6.12
2018-12-27T08:39:30.812Z,6.23
2018-12-27T08:42:01.237Z,6.24
2018-12-27T08:50:37.179Z,6.27
2018-12-27T08:53:07.414Z,6.34
2018-12-27T08:55:37.718Z,6.45
2018-12-27T09:01:02.568Z,6.39
2018-12-27T09:03:32.809Z,6.41
2018-12-27T09:06:03.077Z,6.48
2018-12-27T09:08:33.526Z,6.50
2018-12-27T09:11:03.794Z,6.54
2018-12-27T09:13:33.941Z,6.54
2018-12-27T09:16:04.410Z,6.57
2018-12-27T09:18:34.630Z,6.60
2018-12-27T09:21:23.740Z,6.76
2018-12-27T09:29:30.140Z,7.16
2018-12-27T09:32:00.412Z,7.12
2018-12-27T09:34:30.626Z,7.16
2018-12-27T09:40:34.675Z,7.01
2018-12-27T09:43:05.008Z,6.86
2018-12-27T09:51:37.584Z,6.75
2018-12-27T09:54:07.806Z,6.73
2018-12-27T09:56:38.055Z,6.75
2018-12-27T09:59:19.626Z,6.85
2018-12-27T10:01:49.954Z,6.86
2018-12-27T10:04:20.220Z,6.76
2018-12-27T10:06:50.551Z,6.88
2018-12-27T10:09:20.823Z,6.73
2018-12-27T10:11:51.016Z,6.69
2018-12-27T10:14:21.406Z,6.61
2018-12-27T10:20:01.348Z,6.70
2018-12-27T10:25:22.250Z,6.78
2018-12-27T10:28:11.222Z,6.88
2018-12-27T10:30:41.970Z,6.98
2018-12-27T10:33:12.268Z,7.11
2018-12-27T10:35:42.621Z,7.23
2018-12-27T10:38:12.826Z,7.31
2018-12-27T10:43:41.720Z,7.40
2018-12-27T10:46:11.997Z,7.53
2018-12-27T10:48:42.011Z,7.71
2018-12-27T10:51:12.616Z,7.81
2018-12-27T10:56:55.675Z,7.88
2018-12-27T10:59:26.032Z,7.86
2018-12-27T11:01:56.246Z,7.88
2018-12-27T11:05:05.411Z,7.97
2018-12-27T11:07:35.592Z,7.99
2018-12-27T11:13:14.066Z,8.11
2018-12-27T11:18:28.851Z,8.24
2018-12-27T11:21:19.248Z,8.13
2018-12-27T11:24:01.602Z,8.16
2018-12-27T11:32:35.292Z,8.05
2018-12-27T11:38:01.526Z,8.11
2018-12-27T11:43:36.748Z,8.08
2018-12-27T11:55:03.608Z,8.24
2018-12-27T12:00:33.945Z,8.24
2018-12-27T12:03:04.398Z,8.17
2018-12-27T12:05:34.725Z,8.22
2018-12-27T12:08:05.186Z,8.23
2018-12-27T12:10:35.639Z,8.26
2018-12-27T12:13:05.969Z,8.25
2018-12-27T12:15:36.369Z,8.22
2018-12-27T12:18:06.587Z,8.18
2018-12-27T12:20:36.819Z,8.21
2018-12-27T12:23:07.368Z,8.18
2018-12-27T12:25:56.692Z,8.22
2018-12-27T12:29:05.862Z,8.17
2018-12-27T12:31:37.686Z,8.09
2018-12-27T12:34:26.782Z,8.14
2018-12-27T12:40:07.425Z,8.23
2018-12-27T12:43:16.714Z,8.24
2018-12-27T12:46:06.042Z,8.18
2018-12-27T12:48:55.307Z,8.08
2018-12-27T12:52:04.655Z,8.04
2018-12-27T13:01:09.330Z,7.97
2018-12-27T13:04:17.105Z,8.01
2018-12-27T13:10:21.521Z,7.94
2018-12-27T13:16:01.671Z,7.95
2018-12-27T13:18:31.785Z,7.97
2018-12-27T13:24:17.479Z,7.91
2018-12-27T13:30:13.310Z,7.88
2018-12-27T13:33:02.415Z,7.86
2018-12-27T13:35:58.158Z,7.83
2018-12-27T13:38:47.291Z,7.73
2018-12-27T13:41:36.504Z,7.69
2018-12-27T13:44:07.017Z,7.62
2018-12-27T13:52:21.597Z,7.36
2018-12-27T13:58:23.814Z,7.31
2018-12-27T14:01:08.150Z,7.14
2018-12-27T14:03:50.479Z,7.08
2018-12-27T14:06:32.837Z,7.03
2018-12-27T14:09:16.937Z,6.92
2018-12-27T14:12:07.489Z,6.84
2018-12-27T14:20:38.250Z,6.63
2018-12-27T14:23:12.142Z,6.63
2018-12-27T14:25:42.839Z,6.54
2018-12-27T14:28:13.668Z,6.45
2018-12-27T14:30:44.064Z,6.42
2018-12-27T14:39:33.893Z,6.19
2018-12-27T14:44:49.735Z,6.07
2018-12-27T14:47:20.199Z,6.00
2018-12-27T14:58:40.635Z,5.77
2018-12-27T15:10:01.499Z,5.39
2018-12-27T15:24:47.218Z,5.13
2018-12-27T15:41:28.570Z,5.35
2018-12-27T15:43:58.794Z,5.44
2018-12-27T15:46:29.086Z,5.43
2018-12-27T15:48:59.436Z,5.51
2018-12-27T15:51:48.507Z,5.62
2018-12-27T15:54:19.009Z,5.68
2018-12-27T15:56:49.812Z,5.73
2018-12-27T15:59:38.906Z,5.81
2018-12-27T16:02:09.203Z,5.83
2018-12-27T16:04:59.588Z,5.91
2018-12-27T16:10:40.185Z,5.95
2018-12-27T16:15:57.119Z,6.03
2018-12-27T16:18:27.402Z,6.05
2018-12-27T16:20:57.651Z,6.02
2018-12-27T16:26:22.881Z,5.98
2018-12-27T16:28:53.639Z,5.89
2018-12-27T16:31:23.963Z,5.85
2018-12-27T16:33:54.531Z,5.80
2018-12-27T16:36:24.821Z,5.79
2018-12-27T16:38:55.145Z,5.74
2018-12-27T16:41:25.520Z,5.72
2018-12-27T16:44:16.149Z,5.80
2018-12-27T16:50:21.504Z,5.84
2018-12-27T16:56:09.451Z,5.92
2018-12-27T16:59:01.053Z,5.88
2018-12-27T17:02:10.693Z,5.71
2018-12-27T17:07:57.532Z,5.53
2018-12-27T17:13:31.295Z,5.48
2018-12-27T17:16:21.838Z,5.44
2018-12-27T17:28:09.513Z,5.41
2018-12-27T17:30:58.523Z,5.48
2018-12-27T17:36:50.277Z,5.54
2018-12-27T17:45:36.521Z,5.54
2018-12-27T18:00:47.534Z,5.16
2018-12-27T18:03:55.295Z,5.18
2018-12-27T18:06:44.750Z,5.26
2018-12-27T18:12:48.616Z,5.15
2018-12-27T18:27:37.814Z,5.00
2018-12-27T18:42:29.440Z,4.89
2018-12-27T18:51:13.782Z,4.86
2018-12-27T18:57:32.695Z,4.83
2018-12-27T19:00:24.539Z,4.85
2018-12-27T19:15:15.781Z,4.54
2018-12-27T19:20:43.466Z,4.42
2018-12-27T19:26:34.564Z,4.31
2018-12-27T19:29:15.562Z,4.25
2018-12-27T19:31:57.407Z,4.21
2018-12-27T19:34:37.951Z,4.14
2018-12-27T19:37:19.572Z,4.16
2018-12-27T19:43:16.536Z,3.95
2018-12-27T19:49:14.965Z,3.72
2018-12-27T19:52:04.041Z,3.69
2018-12-27T19:54:45.819Z,3.62
2018-12-27T20:06:17.739Z,3.60
2018-12-27T20:09:04.355Z,3.63
2018-12-27T20:11:50.979Z,3.60
2018-12-27T20:14:37.523Z,3.65
2018-12-27T20:17:28.178Z,3.72
2018-12-27T20:20:18.654Z,3.83
2018-12-27T20:23:09.573Z,3.93
2018-12-27T20:26:00.202Z,3.93
2018-12-27T20:34:44.715Z,4.12
2018-12-27T20:43:54.337Z,4.19
2018-12-27T20:49:45.318Z,4.12
2018-12-27T20:52:26.956Z,4.16
2018-12-27T20:55:07.869Z,4.12
2018-12-27T21:00:34.782Z,4.10
2018-12-27T21:03:15.549Z,4.03
2018-12-27T21:05:56.723Z,4.01
2018-12-27T21:11:23.287Z,3.80
2018-12-27T21:17:17.749Z,3.73
2018-12-27T21:26:23.063Z,3.76
2018-12-27T21:29:32.877Z,3.77
2018-12-27T21:32:43.829Z,3.73
2018-12-27T21:35:33.322Z,3.70
2018-12-27T21:38:42.578Z,3.81
2018-12-27T21:50:28.234Z,3.93
2018-12-27T21:59:07.933Z,3.89
2018-12-27T22:07:53.486Z,3.91
2018-12-27T22:10:34.858Z,3.92
2018-12-27T22:13:16.391Z,3.98
2018-12-27T22:24:51.354Z,4.09
2018-12-27T22:30:25.111Z,4.02
2018-12-27T22:33:14.448Z,4.04
2018-12-27T22:36:03.776Z,3.97
2018-12-27T22:38:59.424Z,3.94
2018-12-27T22:44:56.743Z,3.86
2018-12-27T22:50:50.919Z,3.85
2018-12-27T22:53:41.849Z,3.76
2018-12-27T22:56:22.714Z,3.80
2018-12-27T23:05:13.320Z,3.76
2018-12-27T23:08:04.018Z,3.73
2018-12-27T23:10:52.380Z,3.70
2018-12-27T23:13:47.652Z,3.66
2018-12-27T23:16:36.843Z,3.62
2018-12-27T23:19:17.739Z,3.66
2018-12-27T23:22:07.043Z,3.64
2018-12-27T23:24:57.666Z,3.66
2018-12-27T23:31:06.631Z,3.67
2018-12-27T23:37:05.673Z,3.70
2018-12-27T23:43:09.597Z,3.65
2018-12-27T23:45:51.207Z,3.66
2018-12-27T23:48:32.845Z,3.65
2018-12-27T23:54:05.004Z,3.65
2018-12-27T23:59:17.560Z,3.69
